createdAt,value
2017-09-29T00:02:21.916Z,17.60
2017-09-29T00:04:50.923Z,18.33
2017-09-29T00:07:18.535Z,17.93
2017-09-29T00:09:46.517Z,17.30
2017-09-29T00:12:14.562Z,16.27
2017-09-29T00:14:42.262Z,17.23
2017-09-29T00:17:09.837Z,19.43
2017-09-29T00:19:37.405Z,18.43
2017-09-29T00:22:05.425Z,18.73
2017-09-29T00:24:33.373Z,19.67
2017-09-29T00:27:01.876Z,20.70
2017-09-29T00:29:29.823Z,21.20
2017-09-29T00:31:57.458Z,23.40
2017-09-29T00:34:26.082Z,23.40
2017-09-29T00:36:53.760Z,24.70
2017-09-29T00:39:21.359Z,25.80
2017-09-29T00:41:48.934Z,24.37
2017-09-29T00:44:17.938Z,25.20
2017-09-29T00:46:47.999Z,24.83
2017-09-29T00:49:16.008Z,21.63
2017-09-29T00:51:43.595Z,21.50
2017-09-29T00:54:11.492Z,22.60
2017-09-29T00:56:40.316Z,24.30
2017-09-29T00:59:08.296Z,25.20
2017-09-29T01:01:36.254Z,26.00
2017-09-29T01:04:03.816Z,26.23
2017-09-29T01:06:31.756Z,25.57
2017-09-29T01:08:59.459Z,27.17
2017-09-29T01:11:27.537Z,23.37
2017-09-29T01:13:55.526Z,24.13
2017-09-29T01:16:23.115Z,22.20
2017-09-29T01:18:50.715Z,22.47
2017-09-29T01:21:18.306Z,23.10
2017-09-29T01:23:45.898Z,23.80
2017-09-29T01:26:13.588Z,24.53
2017-09-29T01:28:41.193Z,26.70
2017-09-29T01:31:08.784Z,26.17
2017-09-29T01:33:36.385Z,27.40
2017-09-29T01:36:03.959Z,27.57
2017-09-29T01:38:31.537Z,27.37
2017-09-29T01:40:59.109Z,26.67
2017-09-29T01:43:26.690Z,24.97
2017-09-29T01:45:54.285Z,23.07
2017-09-29T01:48:21.862Z,24.77
2017-09-29T01:50:51.500Z,23.60
2017-09-29T01:53:19.077Z,23.40
2017-09-29T01:55:46.973Z,23.83
2017-09-29T01:58:15.965Z,24.87
2017-09-29T02:00:43.585Z,23.23
2017-09-29T02:03:11.154Z,23.80
2017-09-29T02:05:40.280Z,23.53
2017-09-29T02:08:07.853Z,24.63
2017-09-29T02:10:36.412Z,22.87
2017-09-29T02:13:04.404Z,22.50
2017-09-29T02:15:31.996Z,23.50
2017-09-29T02:17:59.835Z,24.30
2017-09-29T02:20:27.381Z,22.30
2017-09-29T02:22:56.097Z,23.93
2017-09-29T02:25:23.686Z,22.93
2017-09-29T02:27:51.241Z,23.57
2017-09-29T02:30:18.854Z,22.70
2017-09-29T02:32:47.650Z,21.47
2017-09-29T02:35:15.636Z,20.83
2017-09-29T02:37:43.185Z,20.73
2017-09-29T02:40:11.113Z,20.87
2017-09-29T02:42:38.686Z,21.17
2017-09-29T02:45:07.399Z,21.30
2017-09-29T02:47:36.016Z,21.00
2017-09-29T02:50:04.561Z,22.37
2017-09-29T02:52:32.179Z,23.00
2017-09-29T02:54:59.728Z,23.80
2017-09-29T02:57:37.580Z,24.33
2017-09-29T03:00:09.166Z,23.87
2017-09-29T03:02:41.064Z,21.53
2017-09-29T03:05:11.076Z,22.07
2017-09-29T03:07:38.676Z,22.63
2017-09-29T03:10:06.223Z,24.17
2017-09-29T03:12:37.177Z,23.50
2017-09-29T03:15:04.799Z,23.83
2017-09-29T03:17:32.380Z,24.00
2017-09-29T03:20:00.121Z,24.27
2017-09-29T03:22:27.692Z,21.80
2017-09-29T03:24:55.272Z,21.40
2017-09-29T03:27:22.837Z,22.43
2017-09-29T03:29:50.424Z,23.17
2017-09-29T03:32:19.236Z,21.90
2017-09-29T03:34:46.814Z,21.83
2017-09-29T03:37:14.402Z,20.97
2017-09-29T03:39:41.957Z,22.07
2017-09-29T03:42:10.316Z,21.20
2017-09-29T03:44:39.459Z,21.30
2017-09-29T03:47:08.480Z,20.07
2017-09-29T03:49:36.055Z,20.73
2017-09-29T03:52:07.005Z,21.57
2017-09-29T03:54:38.712Z,19.50
2017-09-29T03:57:09.899Z,20.93
2017-09-29T03:59:39.066Z,20.67
2017-09-29T04:02:08.151Z,20.37
2017-09-29T04:04:35.729Z,22.20
2017-09-29T04:07:03.709Z,22.20
2017-09-29T04:09:31.778Z,21.00
2017-09-29T04:11:59.707Z,20.37
2017-09-29T04:14:30.286Z,20.20
2017-09-29T04:16:57.885Z,19.50
2017-09-29T04:19:25.512Z,18.90
2017-09-29T04:21:53.151Z,21.17
2017-09-29T04:24:21.329Z,19.17
2017-09-29T04:26:49.350Z,17.30
2017-09-29T04:29:17.044Z,17.00
2017-09-29T04:31:45.076Z,16.83
2017-09-29T04:34:12.649Z,17.03
2017-09-29T04:36:40.254Z,18.30
2017-09-29T04:39:07.793Z,18.77
2017-09-29T04:41:35.354Z,18.73
2017-09-29T04:44:08.437Z,18.67
2017-09-29T04:46:36.391Z,17.97
2017-09-29T04:49:05.320Z,17.97
2017-09-29T04:51:34.611Z,18.67
2017-09-29T04:54:02.280Z,17.57
2017-09-29T04:56:29.851Z,18.37
2017-09-29T04:58:58.136Z,17.57
2017-09-29T05:01:25.852Z,17.27
2017-09-29T05:03:55.781Z,17.80
2017-09-29T05:06:23.806Z,17.13
2017-09-29T05:08:52.229Z,17.40
2017-09-29T05:11:19.801Z,16.97
2017-09-29T05:13:48.055Z,17.87
2017-09-29T05:16:15.609Z,16.90
2017-09-29T05:18:43.250Z,16.47
2017-09-29T05:21:10.827Z,16.40
2017-09-29T05:23:38.384Z,16.60
2017-09-29T05:26:05.979Z,17.00
2017-09-29T05:28:33.608Z,17.10
2017-09-29T05:31:01.221Z,16.17
2017-09-29T05:33:30.637Z,16.60
2017-09-29T05:35:58.277Z,16.40
2017-09-29T05:38:25.844Z,17.90
2017-09-29T05:40:53.405Z,18.97
2017-09-29T05:43:21.057Z,17.70
2017-09-29T05:45:50.391Z,17.53
2017-09-29T05:48:18.365Z,17.20
2017-09-29T05:50:46.889Z,17.57
2017-09-29T05:53:15.746Z,17.50
2017-09-29T05:55:43.342Z,19.97
2017-09-29T05:58:11.076Z,18.07
2017-09-29T06:00:38.832Z,19.07
2017-09-29T06:03:06.396Z,19.97
2017-09-29T06:05:35.527Z,17.83
2017-09-29T06:08:03.094Z,18.33
2017-09-29T06:10:30.642Z,20.00
2017-09-29T06:12:59.549Z,18.47
2017-09-29T06:15:29.540Z,19.47
2017-09-29T06:17:57.227Z,19.70
2017-09-29T06:20:25.250Z,18.77
2017-09-29T06:22:52.862Z,19.67
2017-09-29T06:25:20.478Z,19.67
2017-09-29T06:27:48.065Z,20.03
2017-09-29T06:30:15.704Z,18.43
2017-09-29T06:32:43.298Z,17.90
2017-09-29T06:35:12.282Z,18.43
2017-09-29T06:37:40.024Z,18.13
2017-09-29T06:40:07.640Z,19.53
2017-09-29T06:42:35.297Z,19.93
2017-09-29T06:45:02.872Z,20.20
2017-09-29T06:47:30.683Z,19.90
2017-09-29T06:49:58.647Z,19.80
2017-09-29T06:52:26.165Z,19.97
2017-09-29T06:54:54.057Z,20.53
2017-09-29T06:57:23.404Z,19.03
2017-09-29T06:59:51.421Z,20.20
2017-09-29T07:02:19.007Z,19.50
2017-09-29T07:04:47.765Z,18.33
2017-09-29T07:07:15.368Z,20.03
2017-09-29T07:09:42.926Z,19.27
2017-09-29T07:12:10.491Z,20.20
2017-09-29T07:14:38.087Z,19.63
2017-09-29T07:17:05.641Z,21.90
2017-09-29T07:19:33.492Z,21.80
2017-09-29T07:22:01.461Z,21.30
2017-09-29T07:24:45.131Z,21.10
2017-09-29T07:27:19.896Z,19.40
2017-09-29T07:29:50.578Z,19.17
2017-09-29T07:32:22.657Z,20.27
2017-09-29T07:34:50.266Z,20.27
2017-09-29T07:37:20.356Z,19.40
2017-09-29T07:39:48.090Z,19.67
2017-09-29T07:42:15.696Z,20.63
2017-09-29T07:44:43.284Z,18.80
2017-09-29T07:47:10.903Z,17.17
2017-09-29T07:49:38.511Z,18.10
2017-09-29T07:52:06.542Z,16.90
2017-09-29T07:54:34.120Z,14.70
2017-09-29T07:57:01.679Z,15.10
2017-09-29T07:59:30.722Z,14.70
2017-09-29T08:01:59.670Z,13.83
2017-09-29T08:04:27.673Z,14.17
2017-09-29T08:06:55.307Z,15.60
2017-09-29T08:09:23.038Z,13.30
2017-09-29T08:11:53.528Z,13.57
2017-09-29T08:14:21.128Z,12.97
2017-09-29T08:16:49.428Z,11.37
2017-09-29T08:19:17.025Z,11.87
2017-09-29T08:21:44.589Z,12.83
2017-09-29T08:24:12.625Z,12.67
2017-09-29T08:26:40.209Z,12.43
2017-09-29T08:29:07.810Z,11.40
2017-09-29T08:31:35.879Z,12.73
2017-09-29T08:34:09.035Z,13.40
2017-09-29T08:36:37.140Z,12.90
2017-09-29T08:39:04.723Z,13.53
2017-09-29T08:41:32.324Z,12.90
2017-09-29T08:44:01.196Z,13.70
2017-09-29T08:46:29.436Z,13.53
2017-09-29T08:48:59.023Z,13.67
2017-09-29T08:51:26.693Z,14.80
2017-09-29T08:53:54.243Z,14.80
2017-09-29T08:56:21.815Z,14.40
2017-09-29T08:58:49.441Z,15.17
2017-09-29T09:01:17.338Z,15.43
2017-09-29T09:03:44.910Z,16.60
2017-09-29T09:06:12.883Z,17.53
2017-09-29T09:08:40.516Z,17.70
2017-09-29T09:11:08.089Z,16.90
2017-09-29T09:13:37.162Z,16.77
2017-09-29T09:16:04.868Z,16.40
2017-09-29T09:18:32.534Z,16.00
2017-09-29T09:21:00.135Z,16.30
2017-09-29T09:23:28.183Z,16.27
2017-09-29T09:25:55.774Z,16.60
2017-09-29T09:28:24.938Z,16.30
2017-09-29T09:30:53.082Z,16.53
2017-09-29T09:33:21.115Z,16.00
2017-09-29T09:35:49.101Z,13.43
2017-09-29T09:38:16.689Z,13.07
2017-09-29T09:40:44.272Z,13.80
2017-09-29T09:43:11.887Z,14.27
2017-09-29T09:45:39.475Z,13.17
2017-09-29T09:48:07.035Z,12.90
2017-09-29T09:50:34.667Z,12.37
2017-09-29T09:53:05.829Z,11.30
2017-09-29T09:55:34.137Z,11.10
2017-09-29T09:58:02.429Z,11.83
2017-09-29T10:00:30.494Z,11.50
2017-09-29T10:02:58.052Z,12.23
2017-09-29T10:05:26.023Z,11.43
2017-09-29T10:07:53.609Z,11.73
2017-09-29T10:10:21.926Z,12.40
2017-09-29T10:12:49.881Z,10.90
2017-09-29T10:15:17.455Z,12.00
2017-09-29T10:17:45.071Z,13.00
2017-09-29T10:20:12.652Z,12.67
2017-09-29T10:22:40.576Z,13.50
2017-09-29T10:25:09.484Z,13.43
2017-09-29T10:27:37.754Z,12.17
2017-09-29T10:30:05.315Z,12.63
2017-09-29T10:32:32.889Z,12.63
2017-09-29T10:35:00.657Z,13.00
2017-09-29T10:37:29.895Z,11.90
2017-09-29T10:39:57.537Z,13.23
2017-09-29T10:42:27.186Z,12.83
2017-09-29T10:44:55.739Z,12.73
2017-09-29T10:47:24.279Z,12.20
2017-09-29T10:49:51.937Z,13.00
2017-09-29T10:52:21.340Z,12.80
2017-09-29T10:54:48.951Z,14.30
2017-09-29T10:57:16.559Z,12.10
2017-09-29T10:59:44.136Z,10.97
2017-09-29T11:02:13.153Z,13.10
2017-09-29T11:04:40.754Z,12.07
2017-09-29T11:07:08.332Z,12.60
2017-09-29T11:09:35.976Z,13.30
2017-09-29T11:12:03.565Z,12.73
2017-09-29T11:14:31.640Z,12.00
2017-09-29T11:16:59.372Z,13.03
2017-09-29T11:19:26.959Z,12.13
2017-09-29T11:21:54.919Z,12.70
2017-09-29T11:24:22.505Z,12.37
2017-09-29T11:26:50.097Z,11.53
2017-09-29T11:29:17.669Z,12.30
2017-09-29T11:31:45.398Z,14.23
2017-09-29T11:34:14.275Z,11.27
2017-09-29T11:36:42.440Z,11.13
2017-09-29T11:39:10.023Z,9.00
2017-09-29T11:41:37.592Z,7.40
2017-09-29T11:44:05.375Z,8.17
2017-09-29T11:46:32.948Z,7.97
2017-09-29T11:49:00.551Z,8.53
2017-09-29T11:51:28.126Z,9.60
2017-09-29T11:53:55.722Z,9.17
2017-09-29T11:56:23.332Z,8.73
2017-09-29T11:58:50.910Z,9.50
2017-09-29T12:01:20.352Z,10.10
2017-09-29T12:03:47.961Z,11.00
2017-09-29T12:06:15.696Z,8.27
2017-09-29T12:08:43.285Z,8.67
2017-09-29T12:11:10.925Z,9.00
2017-09-29T12:13:38.518Z,9.87
2017-09-29T12:16:06.482Z,8.93
2017-09-29T12:18:34.066Z,9.13
2017-09-29T12:21:07.233Z,7.87
2017-09-29T12:23:36.303Z,8.20
2017-09-29T12:26:04.470Z,8.83
2017-09-29T12:28:32.351Z,8.00
2017-09-29T12:31:00.296Z,7.60
2017-09-29T12:33:27.883Z,7.37
2017-09-29T12:35:55.476Z,7.40
2017-09-29T12:38:23.405Z,8.77
2017-09-29T12:40:51.001Z,9.23
2017-09-29T12:43:19.266Z,7.70
2017-09-29T12:45:46.875Z,7.97
2017-09-29T12:48:14.463Z,8.00
2017-09-29T12:50:42.089Z,7.57
2017-09-29T12:53:09.635Z,7.97
2017-09-29T12:55:37.764Z,7.43
2017-09-29T12:58:05.318Z,7.70
2017-09-29T13:00:32.906Z,7.23
2017-09-29T13:03:00.558Z,7.80
2017-09-29T13:05:28.120Z,8.03
2017-09-29T13:07:56.660Z,9.50
2017-09-29T13:10:24.218Z,8.87
2017-09-29T13:12:51.857Z,6.70
2017-09-29T13:15:20.857Z,6.13
2017-09-29T13:17:48.821Z,5.40
2017-09-29T13:20:16.415Z,4.63
2017-09-29T13:22:44.016Z,5.97
2017-09-29T13:25:11.605Z,5.17
2017-09-29T13:27:39.181Z,5.20
2017-09-29T13:30:09.287Z,4.80
2017-09-29T13:32:37.877Z,5.43
2017-09-29T13:35:05.428Z,5.63
2017-09-29T13:37:33.017Z,4.73
2017-09-29T13:40:00.572Z,5.20
2017-09-29T13:42:28.155Z,4.77
2017-09-29T13:44:55.738Z,5.60
2017-09-29T13:47:23.689Z,6.30
2017-09-29T13:49:51.637Z,5.60
2017-09-29T13:52:19.204Z,6.70
2017-09-29T13:54:46.817Z,7.87
2017-09-29T13:57:14.406Z,6.83
2017-09-29T13:59:42.059Z,5.73
2017-09-29T14:02:09.845Z,5.73
2017-09-29T14:04:37.838Z,5.70
2017-09-29T14:07:05.397Z,7.17
2017-09-29T14:09:32.968Z,6.63
2017-09-29T14:12:00.565Z,6.40
2017-09-29T14:14:28.147Z,6.47
2017-09-29T14:16:56.481Z,6.10
2017-09-29T14:19:25.949Z,6.37
2017-09-29T14:21:53.529Z,6.43
2017-09-29T14:24:21.115Z,7.37
2017-09-29T14:26:50.195Z,8.00
2017-09-29T14:29:17.786Z,9.47
2017-09-29T14:31:45.361Z,12.27
2017-09-29T14:34:12.947Z,13.27
2017-09-29T14:36:40.496Z,13.30
2017-09-29T14:39:08.110Z,12.87
2017-09-29T14:41:36.029Z,14.50
2017-09-29T14:44:04.063Z,14.80
2017-09-29T14:46:31.655Z,14.60
2017-09-29T14:48:59.214Z,15.30
2017-09-29T14:51:26.815Z,16.80
2017-09-29T14:53:54.801Z,18.03
2017-09-29T14:56:22.395Z,20.00
2017-09-29T14:58:50.621Z,19.47
2017-09-29T15:01:18.234Z,19.70
2017-09-29T15:03:45.821Z,21.10
2017-09-29T15:06:14.917Z,19.53
2017-09-29T15:08:42.526Z,20.80
2017-09-29T15:11:10.106Z,19.17
2017-09-29T15:13:38.422Z,19.57
2017-09-29T15:16:06.023Z,17.47
2017-09-29T15:18:33.617Z,17.47
2017-09-29T15:21:01.197Z,15.00
2017-09-29T15:23:28.980Z,14.73
2017-09-29T15:25:56.967Z,14.50
2017-09-29T15:28:24.521Z,14.20
2017-09-29T15:30:52.462Z,13.47
2017-09-29T15:33:20.461Z,12.33
2017-09-29T15:35:48.429Z,14.03
2017-09-29T15:38:16.377Z,13.20
2017-09-29T15:40:44.403Z,12.63
2017-09-29T15:43:12.649Z,13.20
2017-09-29T15:45:40.218Z,13.37
2017-09-29T15:48:07.848Z,13.20
2017-09-29T15:50:35.559Z,14.37
2017-09-29T15:53:03.160Z,13.33
2017-09-29T15:55:30.742Z,13.10
2017-09-29T15:57:58.325Z,12.97
2017-09-29T16:00:25.945Z,13.57
2017-09-29T16:02:53.642Z,13.77
2017-09-29T16:05:22.052Z,13.57
2017-09-29T16:07:49.623Z,14.47
2017-09-29T16:10:17.233Z,13.57
2017-09-29T16:12:46.408Z,14.63
2017-09-29T16:15:14.360Z,15.43
2017-09-29T16:17:42.522Z,14.33
2017-09-29T16:20:10.144Z,14.23
2017-09-29T16:22:37.763Z,15.00
2017-09-29T16:25:06.070Z,14.00
2017-09-29T16:27:33.720Z,13.20
2017-09-29T16:30:02.257Z,14.83
2017-09-29T16:32:29.893Z,15.77
2017-09-29T16:34:57.461Z,14.97
2017-09-29T16:37:26.257Z,15.50
2017-09-29T16:39:53.841Z,15.40
2017-09-29T16:42:22.770Z,17.23
2017-09-29T16:44:50.874Z,15.97
2017-09-29T16:47:20.000Z,15.10
2017-09-29T16:49:49.009Z,15.30
2017-09-29T16:52:16.593Z,16.30
2017-09-29T16:54:44.192Z,14.10
2017-09-29T16:57:11.804Z,15.20
2017-09-29T16:59:39.365Z,15.93
2017-09-29T17:02:06.920Z,15.57
2017-09-29T17:04:34.544Z,14.90
2017-09-29T17:07:02.115Z,14.80
2017-09-29T17:09:29.852Z,14.70
2017-09-29T17:11:57.438Z,16.50
2017-09-29T17:14:25.097Z,15.20
2017-09-29T17:16:52.715Z,13.30
2017-09-29T17:19:20.770Z,16.50
2017-09-29T17:21:48.416Z,15.37
2017-09-29T17:24:16.333Z,14.93
2017-09-29T17:26:45.372Z,16.10
2017-09-29T17:29:13.429Z,14.13
2017-09-29T17:31:41.185Z,15.97
2017-09-29T17:34:08.783Z,15.80
2017-09-29T17:36:37.123Z,17.70
2017-09-29T17:39:06.741Z,18.77
2017-09-29T17:41:34.340Z,17.80
2017-09-29T17:44:02.373Z,18.53
2017-09-29T17:46:29.941Z,17.97
2017-09-29T17:49:00.056Z,17.90
2017-09-29T17:51:28.698Z,18.50
2017-09-29T17:53:56.285Z,17.67
2017-09-29T17:56:23.910Z,17.37
2017-09-29T17:58:51.524Z,17.80
2017-09-29T18:01:19.635Z,15.63
2017-09-29T18:03:47.597Z,17.73
2017-09-29T18:06:16.551Z,17.30
2017-09-29T18:08:44.152Z,17.23
2017-09-29T18:11:12.466Z,17.33
2017-09-29T18:13:40.086Z,17.50
2017-09-29T18:16:11.599Z,17.83
2017-09-29T18:18:39.240Z,18.83
2017-09-29T18:21:07.725Z,18.83
2017-09-29T18:23:37.037Z,18.10
2017-09-29T18:26:05.066Z,17.77
2017-09-29T18:28:32.817Z,28.80
2017-09-29T18:31:00.417Z,29.10
2017-09-29T18:33:28.011Z,21.70
2017-09-29T18:35:55.638Z,19.47
2017-09-29T18:38:23.268Z,18.33
2017-09-29T18:41:01.007Z,19.00
2017-09-29T18:43:32.883Z,18.20
2017-09-29T18:46:16.767Z,17.17
2017-09-29T18:51:16.996Z,16.60
2017-09-29T18:53:45.329Z,16.70
2017-09-29T18:56:14.542Z,17.13
2017-09-29T18:58:42.489Z,18.30
2017-09-29T19:01:11.469Z,17.80
2017-09-29T19:03:40.525Z,18.23
2017-09-29T19:06:08.137Z,18.40
2017-09-29T19:08:37.073Z,18.50
2017-09-29T19:11:04.690Z,21.50
2017-09-29T19:13:32.312Z,21.13
2017-09-29T19:15:59.958Z,22.77
2017-09-29T19:18:27.560Z,24.40
2017-09-29T19:20:55.379Z,22.73
2017-09-29T19:23:23.010Z,23.97
2017-09-29T19:25:53.656Z,23.97
2017-09-29T19:28:22.011Z,23.20
2017-09-29T19:30:49.597Z,23.33
2017-09-29T19:33:17.219Z,21.90
2017-09-29T19:35:46.761Z,23.27
2017-09-29T19:38:15.862Z,22.47
2017-09-29T19:40:43.470Z,22.17
2017-09-29T19:43:15.428Z,22.73
2017-09-29T19:45:43.411Z,22.60
2017-09-29T19:48:11.546Z,24.57
2017-09-29T19:50:39.119Z,24.20
2017-09-29T19:53:06.925Z,23.47
2017-09-29T19:55:34.591Z,23.70
2017-09-29T19:58:02.196Z,24.60
2017-09-29T20:00:29.830Z,24.70
2017-09-29T20:03:01.441Z,25.63
2017-09-29T20:05:31.194Z,25.47
2017-09-29T20:07:58.786Z,27.30
2017-09-29T20:10:28.999Z,27.03
2017-09-29T20:12:56.606Z,26.33
2017-09-29T20:15:24.239Z,25.97
2017-09-29T20:17:53.100Z,24.33
2017-09-29T20:20:23.474Z,25.57
2017-09-29T20:22:53.388Z,26.87
2017-09-29T20:25:20.944Z,24.87
2017-09-29T20:27:48.542Z,25.27
2017-09-29T20:30:16.179Z,24.90
2017-09-29T20:32:43.738Z,24.27
2017-09-29T20:35:13.916Z,22.73
2017-09-29T20:37:42.333Z,23.37
2017-09-29T20:40:13.169Z,25.53
2017-09-29T20:42:43.020Z,25.97
2017-09-29T20:45:10.626Z,26.40
2017-09-29T20:47:42.783Z,26.13
2017-09-29T20:50:10.357Z,26.30
2017-09-29T20:52:38.980Z,23.67
2017-09-29T20:55:06.548Z,26.23
2017-09-29T20:57:37.195Z,27.17
2017-09-29T21:00:07.085Z,27.17
2017-09-29T21:02:34.689Z,26.13
2017-09-29T21:05:02.757Z,27.93
2017-09-29T21:07:31.544Z,27.17
2017-09-29T21:09:59.139Z,26.03
2017-09-29T21:12:29.434Z,27.70
2017-09-29T21:14:57.168Z,26.80
2017-09-29T21:17:26.141Z,25.90
2017-09-29T21:19:53.735Z,28.10
2017-09-29T21:22:21.344Z,28.10
2017-09-29T21:24:50.293Z,25.80
2017-09-29T21:27:18.516Z,27.37
2017-09-29T21:29:46.501Z,33.50
2017-09-29T21:32:16.923Z,27.90
2017-09-29T21:34:44.497Z,24.97
2017-09-29T21:37:12.090Z,26.37
2017-09-29T21:39:40.059Z,25.10
2017-09-29T21:42:07.643Z,27.03
2017-09-29T21:44:35.239Z,26.00
2017-09-29T21:47:03.575Z,29.77
2017-09-29T21:49:31.148Z,26.53
2017-09-29T21:51:58.758Z,26.10
2017-09-29T21:54:26.356Z,26.27
2017-09-29T21:56:53.985Z,25.60
2017-09-29T21:59:22.822Z,25.47
2017-09-29T22:01:50.432Z,26.13
2017-09-29T22:04:18.411Z,25.50
2017-09-29T22:06:45.999Z,25.47
2017-09-29T22:09:13.577Z,25.73
2017-09-29T22:11:41.610Z,27.20
2017-09-29T22:14:09.191Z,27.80
2017-09-29T22:16:36.779Z,26.57
2017-09-29T22:19:04.374Z,26.00
2017-09-29T22:21:31.963Z,29.17
2017-09-29T22:23:59.553Z,28.13
2017-09-29T22:26:27.149Z,27.13
2017-09-29T22:28:55.047Z,27.60
2017-09-29T22:31:22.607Z,27.83
2017-09-29T22:33:51.004Z,28.47
2017-09-29T22:36:18.607Z,27.60
2017-09-29T22:38:46.176Z,26.97
2017-09-29T22:41:13.772Z,25.33
2017-09-29T22:43:41.701Z,27.07
2017-09-29T22:46:09.316Z,24.97
2017-09-29T22:48:37.234Z,25.80
2017-09-29T22:51:05.241Z,26.30
2017-09-29T22:53:33.616Z,26.07
2017-09-29T22:56:01.204Z,26.20
2017-09-29T22:58:30.534Z,24.77
2017-09-29T23:00:58.121Z,24.90
2017-09-29T23:03:25.712Z,26.37
2017-09-29T23:05:53.283Z,25.17
2017-09-29T23:08:21.057Z,26.77
2017-09-29T23:10:49.469Z,25.50
2017-09-29T23:13:17.022Z,25.63
2017-09-29T23:15:44.622Z,25.10
2017-09-29T23:18:12.184Z,23.67
2017-09-29T23:20:43.300Z,24.83
2017-09-29T23:23:10.904Z,25.60
2017-09-29T23:25:38.507Z,24.37
2017-09-29T23:28:06.107Z,23.73
2017-09-29T23:30:33.710Z,24.63
2017-09-29T23:33:01.266Z,23.70
2017-09-29T23:35:31.557Z,24.00
2017-09-29T23:37:59.156Z,23.43
2017-09-29T23:40:28.433Z,24.20
2017-09-29T23:42:56.361Z,24.90
2017-09-29T23:45:24.537Z,24.00
2017-09-29T23:47:52.127Z,24.57
2017-09-29T23:50:21.314Z,27.10
2017-09-29T23:52:48.908Z,25.50
2017-09-29T23:55:16.957Z,23.60
2017-09-29T23:57:44.528Z,25.10
